createdAt,value
2018-07-21T00:00:01.743Z,17.7
2018-07-21T00:05:01.715Z,17.7
2018-07-21T00:10:02.483Z,17.7
2018-07-21T00:15:01.625Z,17.7
2018-07-21T00:20:02.055Z,17.7
2018-07-21T00:25:01.481Z,17.7
2018-07-21T00:30:02.044Z,17.7
2018-07-21T00:35:01.423Z,17.7
2018-07-21T00:40:02.258Z,17.7
2018-07-21T00:45:02.315Z,17.7
2018-07-21T00:50:01.835Z,17.7
2018-07-21T00:55:01.195Z,17.7
2018-07-21T01:00:02.598Z,17.7
2018-07-21T01:05:01.446Z,17.7
2018-07-21T01:10:01.370Z,17.7
2018-07-21T01:15:01.409Z,17.7
2018-07-21T01:20:02.040Z,17.7
2018-07-21T01:25:02.145Z,17.7
2018-07-21T01:30:02.050Z,17.7
2018-07-21T01:35:01.822Z,17.7
2018-07-21T01:40:01.864Z,17.7
2018-07-21T01:45:02.085Z,17.7
2018-07-21T01:50:01.469Z,17.7
2018-07-21T01:55:02.473Z,17.7
2018-07-21T02:00:01.273Z,17.7
2018-07-21T02:05:01.928Z,17.7
2018-07-21T02:10:01.738Z,17.7
2018-07-21T02:15:01.787Z,17.7
2018-07-21T02:20:01.227Z,17.7
2018-07-21T02:25:01.496Z,17.7
2018-07-21T02:30:01.557Z,17.7
2018-07-21T02:35:01.307Z,17.7
2018-07-21T02:40:02.155Z,17.7
2018-07-21T02:45:01.455Z,17.7
2018-07-21T02:50:01.530Z,17.7
2018-07-21T02:55:01.942Z,17.7
2018-07-21T03:00:01.791Z,17.7
2018-07-21T03:05:02.476Z,17.7
2018-07-21T03:10:01.257Z,17.7
2018-07-21T03:15:01.840Z,17.7
2018-07-21T03:20:01.571Z,17.7
2018-07-21T03:25:01.684Z,17.7
2018-07-21T03:30:01.945Z,17.7
2018-07-21T03:35:01.783Z,17.7
2018-07-21T03:40:02.004Z,17.7
2018-07-21T03:45:01.742Z,17.7
2018-07-21T03:50:01.275Z,17.7
2018-07-21T03:55:02.115Z,17.7
2018-07-21T04:00:01.346Z,17.7
2018-07-21T04:05:01.476Z,17.7
2018-07-21T04:10:01.309Z,17.7
2018-07-21T04:15:02.064Z,17.7
2018-07-21T04:20:01.477Z,17.7
2018-07-21T04:25:01.817Z,17.4
2018-07-21T04:30:02.295Z,15.5
2018-07-21T04:35:02.031Z,15.6
2018-07-21T04:40:01.212Z,15.7
2018-07-21T04:45:01.230Z,16.2
2018-07-21T04:50:01.828Z,17.1
2018-07-21T04:55:02.052Z,17.6
2018-07-21T05:00:01.425Z,17.9
2018-07-21T05:05:01.925Z,17.8
2018-07-21T05:10:01.464Z,17.8
2018-07-21T05:15:02.156Z,17.7
2018-07-21T05:20:01.725Z,17.7
2018-07-21T05:25:01.891Z,17.6
2018-07-21T05:30:01.644Z,17.8
2018-07-21T05:35:01.485Z,18
2018-07-21T05:40:02.486Z,18.2
2018-07-21T05:45:01.556Z,18.5
2018-07-21T05:50:01.695Z,18.6
2018-07-21T05:55:01.723Z,18.8
2018-07-21T06:00:02.394Z,19.1
2018-07-21T06:05:01.883Z,19.3
2018-07-21T06:10:02.185Z,19.6
2018-07-21T06:15:01.647Z,20.2
2018-07-21T06:20:02.382Z,20.6
2018-07-21T06:25:01.353Z,20.8
2018-07-21T06:30:01.834Z,21.4
2018-07-21T06:35:01.985Z,21.8
2018-07-21T06:40:02.118Z,22
2018-07-21T06:45:01.476Z,22.5
2018-07-21T06:50:01.683Z,22.6
2018-07-21T06:55:01.751Z,22.9
2018-07-21T07:00:01.794Z,23.2
2018-07-21T07:05:02.144Z,23.2
2018-07-21T07:10:01.437Z,23.3
2018-07-21T07:15:02.395Z,23.6
2018-07-21T07:20:01.480Z,23.8
2018-07-21T07:25:01.282Z,24
2018-07-21T07:30:01.951Z,24.1
2018-07-21T07:35:02.125Z,24
2018-07-21T07:40:02.071Z,23.9
2018-07-21T07:45:01.839Z,24.4
2018-07-21T07:50:01.965Z,24.8
2018-07-21T07:55:01.760Z,25
2018-07-21T08:00:02.065Z,25
2018-07-21T08:05:01.792Z,25.3
2018-07-21T08:10:02.117Z,25.7
2018-07-21T08:15:01.175Z,25.9
2018-07-21T08:20:01.762Z,26
2018-07-21T08:25:02.116Z,26.1
2018-07-21T08:30:01.786Z,26.3
2018-07-21T08:35:01.684Z,26.4
2018-07-21T08:40:01.547Z,26.5
2018-07-21T08:45:01.766Z,26.7
2018-07-21T08:50:01.327Z,26.3
2018-07-21T08:55:01.805Z,26.3
2018-07-21T09:00:02.509Z,26.7
2018-07-21T09:05:01.735Z,26.4
2018-07-21T09:10:01.791Z,26.3
2018-07-21T09:15:02.417Z,26.6
2018-07-21T09:20:01.718Z,26.9
2018-07-21T09:25:02.085Z,26.9
2018-07-21T09:30:01.745Z,27.5
2018-07-21T09:35:02.523Z,27.5
2018-07-21T09:40:01.613Z,27.6
2018-07-21T09:45:01.589Z,27.5
2018-07-21T09:50:01.746Z,27.9
2018-07-21T09:55:01.933Z,27.5
2018-07-21T10:00:01.379Z,27.7
2018-07-21T10:05:01.914Z,27.9
2018-07-21T10:10:02.255Z,28.2
2018-07-21T10:15:02.040Z,28.4
2018-07-21T10:20:01.945Z,28.5
2018-07-21T10:25:01.635Z,27.8
2018-07-21T10:30:02.572Z,27.6
2018-07-21T10:35:02.191Z,27.4
2018-07-21T10:40:01.211Z,27.4
2018-07-21T10:45:01.635Z,28
2018-07-21T10:50:02.346Z,28.3
2018-07-21T10:55:01.973Z,28
2018-07-21T11:00:01.385Z,27.9
2018-07-21T11:05:01.431Z,27.6
2018-07-21T11:10:01.684Z,27.6
2018-07-21T11:15:02.184Z,27.3
2018-07-21T11:20:01.981Z,27.7
2018-07-21T11:25:01.334Z,28.1
2018-07-21T11:30:02.399Z,28.2
2018-07-21T11:35:01.585Z,28.6
2018-07-21T11:40:01.506Z,28.9
2018-07-21T11:45:02.347Z,29
2018-07-21T11:50:01.390Z,29.5
2018-07-21T11:55:02.004Z,29.8
2018-07-21T12:00:02.407Z,30.1
2018-07-21T12:05:01.382Z,29.6
2018-07-21T12:10:01.387Z,29.8
2018-07-21T12:15:02.486Z,29.8
2018-07-21T12:20:01.173Z,29.9
2018-07-21T12:25:01.682Z,29.4
2018-07-21T12:30:01.585Z,29.4
2018-07-21T12:35:01.984Z,30.1
2018-07-21T12:40:01.807Z,30.5
2018-07-21T12:45:02.021Z,29.7
2018-07-21T12:50:02.396Z,29.6
2018-07-21T12:55:01.632Z,29.5
2018-07-21T13:00:02.308Z,29.6
2018-07-21T13:05:01.758Z,29.9
2018-07-21T13:10:02.044Z,29.6
2018-07-21T13:15:01.925Z,29.5
2018-07-21T13:20:02.074Z,29.4
2018-07-21T13:25:01.525Z,28.8
2018-07-21T13:30:01.745Z,28.7
2018-07-21T13:35:02.024Z,28.2
2018-07-21T13:40:01.926Z,28.3
2018-07-21T13:45:02.155Z,29.1
2018-07-21T13:50:01.261Z,29.4
2018-07-21T13:55:01.396Z,29.7
2018-07-21T14:00:02.073Z,29.5
2018-07-21T14:05:02.105Z,29.2
2018-07-21T14:10:01.455Z,29.3
2018-07-21T14:15:02.107Z,29.3
2018-07-21T14:20:02.110Z,29.1
2018-07-21T14:25:01.538Z,29.4
2018-07-21T14:30:02.177Z,29.5
2018-07-21T14:35:01.321Z,29.9
2018-07-21T14:40:01.842Z,29.8
2018-07-21T14:45:02.162Z,30.1
2018-07-21T14:50:01.151Z,29.7
2018-07-21T14:55:02.484Z,29.5
2018-07-21T15:00:01.199Z,29.5
2018-07-21T15:05:01.645Z,28.8
2018-07-21T15:10:01.959Z,28.4
2018-07-21T15:15:02.189Z,28.3
2018-07-21T15:20:02.158Z,28.4
2018-07-21T15:25:02.140Z,28.6
2018-07-21T15:30:01.883Z,28.7
2018-07-21T15:35:02.032Z,28.9
2018-07-21T15:40:01.341Z,29
2018-07-21T15:45:01.931Z,28.7
2018-07-21T15:50:02.239Z,27.8
2018-07-21T15:55:01.779Z,27.5
2018-07-21T16:00:01.325Z,27
2018-07-21T16:05:01.206Z,27.4
2018-07-21T16:10:02.260Z,27.7
2018-07-21T16:15:03.873Z,27.6
2018-07-21T16:20:02.033Z,26.6
2018-07-21T16:25:01.312Z,26.1
2018-07-21T16:30:02.016Z,26
2018-07-21T16:35:01.340Z,25.5
2018-07-21T16:40:01.196Z,25.4
2018-07-21T16:45:01.854Z,25.5
2018-07-21T16:50:01.804Z,25.7
2018-07-21T16:55:01.347Z,25.6
2018-07-21T17:00:02.269Z,25.3
2018-07-21T17:05:01.508Z,25
2018-07-21T17:10:02.087Z,25
2018-07-21T17:15:01.570Z,24.8
2018-07-21T17:20:01.710Z,24.6
2018-07-21T17:25:01.300Z,24.6
2018-07-21T17:30:02.019Z,24.7
2018-07-21T17:35:01.956Z,24.8
2018-07-21T17:40:02.070Z,24.8
2018-07-21T17:45:01.494Z,24.7
2018-07-21T17:50:01.958Z,24.6
2018-07-21T17:55:02.067Z,24.5
2018-07-21T18:00:01.709Z,24.3
2018-07-21T18:05:01.824Z,24.3
2018-07-21T18:10:01.666Z,24.2
2018-07-21T18:15:01.197Z,24.2
2018-07-21T18:20:02.317Z,24.1
2018-07-21T18:25:02.070Z,24
2018-07-21T18:30:01.674Z,23.9
2018-07-21T18:35:02.427Z,23.8
2018-07-21T18:40:01.189Z,23.7
2018-07-21T18:45:01.329Z,23.7
2018-07-21T18:50:01.396Z,23.6
2018-07-21T18:55:01.386Z,23.5
2018-07-21T19:00:01.793Z,23.5
2018-07-21T19:05:01.701Z,23.3
2018-07-21T19:10:02.114Z,23.2
2018-07-21T19:15:01.456Z,23.1
2018-07-21T19:20:01.963Z,23.1
2018-07-21T19:25:01.859Z,23.1
2018-07-21T19:30:01.741Z,23
2018-07-21T19:35:01.477Z,23
2018-07-21T19:40:01.396Z,22.9
2018-07-21T19:45:02.095Z,22.9
2018-07-21T19:50:01.525Z,22.9
2018-07-21T19:55:01.595Z,22.9
2018-07-21T20:00:02.328Z,22.8
2018-07-21T20:05:02.075Z,22.7
2018-07-21T20:10:01.399Z,22.6
2018-07-21T20:15:01.690Z,22.6
2018-07-21T20:20:01.829Z,22.6
2018-07-21T20:25:01.710Z,22.5
2018-07-21T20:30:01.559Z,22.4
2018-07-21T20:35:02.366Z,22.4
2018-07-21T20:40:02.156Z,22.4
2018-07-21T20:45:01.668Z,22.4
2018-07-21T20:50:01.473Z,22.3
2018-07-21T20:55:01.930Z,22.3
2018-07-21T21:00:01.383Z,22.3
2018-07-21T21:05:01.382Z,22.3
2018-07-21T21:10:01.548Z,22.3
2018-07-21T21:15:01.558Z,22.3
2018-07-21T21:20:01.664Z,22.3
2018-07-21T21:25:01.525Z,22.2
2018-07-21T21:30:02.077Z,22.2
2018-07-21T21:35:01.376Z,22.2
2018-07-21T21:40:01.877Z,22.3
2018-07-21T21:45:02.088Z,22.3
2018-07-21T21:50:01.954Z,22.3
2018-07-21T21:55:01.919Z,22.2
2018-07-21T22:00:02.113Z,22.1
2018-07-21T22:05:01.779Z,22.1
2018-07-21T22:10:02.272Z,22.1
2018-07-21T22:15:01.634Z,22.1
2018-07-21T22:20:01.299Z,22
2018-07-21T22:25:01.208Z,21.8
2018-07-21T22:30:01.645Z,21.8
2018-07-21T22:35:01.949Z,21.8
2018-07-21T22:40:02.036Z,21.9
2018-07-21T22:45:02.358Z,21.7
2018-07-21T22:50:01.277Z,21.6
2018-07-21T22:55:01.683Z,21.4
2018-07-21T23:00:01.700Z,21.5
2018-07-21T23:05:01.795Z,21.5
2018-07-21T23:10:01.899Z,21.4
2018-07-21T23:15:01.721Z,21.5
2018-07-21T23:20:01.622Z,21.5
2018-07-21T23:25:01.347Z,21.4
2018-07-21T23:30:01.342Z,21.5
2018-07-21T23:35:02.359Z,21.5
2018-07-21T23:40:01.227Z,21.5
2018-07-21T23:45:02.058Z,21.5
2018-07-21T23:50:01.455Z,21.4
2018-07-21T23:55:01.790Z,21.1
